Time;durP1;ratioP1;P1;durP2;ratioP2;P2;SDS_P1;SDS_P2;PMS_P1;PMS_P2;Temp;Humidity;BMP_temperature;BMP_pressure;BME280_temperature;BME280_humidity;BME280_pressure;Samples;Min_cycle;Max_cycle;Signal;HPM_P1;HPM_P2
2021/08/30 00:01:57;;;;;;;8.85;6.97;;;14.00;99.90;;;;;;5028638;28;20204;-68
2021/08/30 00:07:32;;;;;;;7.63;6.70;;;14.00;99.90;;;;;;5029719;22;20814;-68
2021/08/30 00:09:59;;;;;;;7.63;6.93;;;14.00;99.90;;;;;;5000601;28;20704;-67
2021/08/30 00:12:25;;;;;;;9.63;8.73;;;14.10;99.90;;;;;;4997078;28;20214;-68
2021/08/30 00:14:52;;;;;;;8.38;7.68;;;14.10;99.90;;;;;;5007857;28;20211;-68
2021/08/30 00:17:20;;;;;;;9.60;7.78;;;14.10;99.90;;;;;;5007268;28;20343;-68
2021/08/30 00:19:46;;;;;;;9.30;8.45;;;14.10;99.90;;;;;;5006637;28;20203;-68
2021/08/30 00:22:13;;;;;;;9.20;8.40;;;14.10;99.90;;;;;;5007749;28;20218;-68
2021/08/30 00:24:41;;;;;;;8.80;8.00;;;14.20;99.90;;;;;;5007324;28;20199;-68
2021/08/30 00:27:08;;;;;;;9.38;8.48;;;14.10;99.90;;;;;;5006989;28;20207;-68
2021/08/30 00:29:35;;;;;;;8.40;7.60;;;14.10;99.90;;;;;;5007143;28;20229;-67
2021/08/30 00:32:02;;;;;;;9.65;8.63;;;14.20;99.90;;;;;;5007215;28;20195;-67
2021/08/30 00:34:29;;;;;;;9.10;8.30;;;14.10;99.90;;;;;;5007968;28;20211;-67
2021/08/30 00:36:55;;;;;;;9.95;9.02;;;14.10;99.90;;;;;;5007254;28;20213;-67
2021/08/30 00:39:23;;;;;;;10.02;9.05;;;14.10;99.90;;;;;;5007455;28;20210;-68
2021/08/30 00:41:53;;;;;;;11.73;9.35;;;14.20;99.90;;;;;;4999349;28;20208;-68
2021/08/30 00:44:20;;;;;;;11.38;9.60;;;14.20;99.90;;;;;;4992020;28;20335;-67
2021/08/30 00:46:47;;;;;;;11.25;10.13;;;14.20;99.90;;;;;;5007027;28;20572;-67
2021/08/30 00:49:14;;;;;;;10.68;9.55;;;14.20;99.90;;;;;;5006142;28;20671;-68
2021/08/30 00:51:41;;;;;;;11.27;9.98;;;14.20;99.90;;;;;;5006100;28;20310;-68
2021/08/30 00:54:08;;;;;;;11.45;10.35;;;14.20;99.90;;;;;;5007704;28;20217;-68
2021/08/30 00:56:36;;;;;;;13.60;11.10;;;14.20;99.90;;;;;;4991443;28;20214;-67
2021/08/30 00:59:04;;;;;;;10.80;9.73;;;14.20;99.90;;;;;;4987607;28;20630;-67
2021/08/30 01:01:31;;;;;;;12.85;11.50;;;14.20;99.90;;;;;;4993425;28;20541;-68
2021/08/30 01:03:58;;;;;;;12.07;10.60;;;14.20;99.90;;;;;;5000081;28;20326;-67
2021/08/30 01:06:33;;;;;;;12.15;10.90;;;14.30;99.90;;;;;;4986755;28;20227;-68
2021/08/30 01:09:06;;;;;;;12.32;10.18;;;14.20;99.90;;;;;;4985950;28;20211;-68
2021/08/30 01:11:38;;;;;;;11.95;10.65;;;14.20;99.90;;;;;;4990411;28;20206;-67
2021/08/30 01:14:09;;;;;;;12.82;11.52;;;14.20;99.90;;;;;;5007325;28;20207;-68
2021/08/30 01:16:37;;;;;;;11.27;10.05;;;14.20;99.90;;;;;;4999448;28;20203;-68
2021/08/30 01:19:08;;;;;;;12.80;11.60;;;14.20;99.90;;;;;;4996765;28;20214;-68
2021/08/30 01:21:39;;;;;;;12.27;11.07;;;14.20;99.90;;;;;;5006936;28;20211;-67
2021/08/30 01:24:10;;;;;;;12.00;10.80;;;14.20;99.90;;;;;;5007107;28;20234;-67
2021/08/30 01:26:41;;;;;;;13.20;11.80;;;14.30;99.90;;;;;;5006625;28;20255;-68
2021/08/30 01:29:16;;;;;;;13.32;12.02;;;14.30;99.90;;;;;;4993365;28;20199;-67
2021/08/30 01:31:51;;;;;;;13.45;12.00;;;14.30;99.90;;;;;;4997145;28;20200;-67
2021/08/30 01:34:21;;;;;;;13.27;11.98;;;14.30;99.90;;;;;;4987756;28;20282;-67
2021/08/30 01:36:50;;;;;;;15.05;13.48;;;14.30;99.90;;;;;;5002752;28;20230;-67
2021/08/30 01:39:18;;;;;;;13.68;12.38;;;14.20;99.90;;;;;;5005814;28;20572;-67
2021/08/30 01:41:45;;;;;;;13.68;12.38;;;14.30;99.90;;;;;;5006964;28;20337;-68
2021/08/30 01:44:14;;;;;;;14.88;13.38;;;14.20;99.90;;;;;;4991072;28;20236;-68
2021/08/30 01:46:42;;;;;;;15.77;14.00;;;14.20;99.90;;;;;;4986375;28;20218;-68
2021/08/30 01:49:10;;;;;;;14.38;12.98;;;14.20;99.90;;;;;;4986313;28;20207;-67
2021/08/30 01:51:39;;;;;;;14.45;13.05;;;14.20;99.90;;;;;;4986537;28;20204;-67
2021/08/30 01:54:07;;;;;;;14.00;12.50;;;14.30;99.90;;;;;;5005487;28;20207;-67
2021/08/30 01:56:34;;;;;;;14.07;12.65;;;14.30;99.90;;;;;;5003037;28;20645;-68
2021/08/30 02:01:47;;;;;;;13.18;11.90;;;14.20;99.90;;;;;;4986781;28;20218;-67
2021/08/30 02:04:14;;;;;;;13.65;12.35;;;14.30;99.90;;;;;;4989170;28;20234;-67
2021/08/30 02:06:42;;;;;;;14.68;13.27;;;14.20;99.90;;;;;;4990051;28;20211;-68
2021/08/30 02:09:09;;;;;;;13.82;12.52;;;14.20;99.90;;;;;;4992502;28;20215;-67
2021/08/30 02:11:36;;;;;;;14.18;12.82;;;14.30;99.90;;;;;;5004596;28;20214;-67
2021/08/30 02:14:07;;;;;;;13.70;12.40;;;14.30;99.90;;;;;;4990608;28;20211;-68
2021/08/30 02:16:34;;;;;;;12.50;11.30;;;14.30;99.90;;;;;;4989937;28;20214;-67
2021/08/30 02:19:09;;;;;;;12.82;11.63;;;14.30;99.90;;;;;;4990093;28;20204;-67
2021/08/30 02:21:40;;;;;;;13.05;11.82;;;14.30;99.90;;;;;;4990638;28;20579;-68
2021/08/30 02:24:16;;;;;;;13.23;12.00;;;14.20;99.90;;;;;;4990836;28;20226;-67
2021/08/30 02:26:48;;;;;;;13.68;12.35;;;14.20;99.90;;;;;;4991338;28;20283;-68
2021/08/30 02:29:18;;;;;;;12.35;11.15;;;14.20;99.90;;;;;;4989975;28;20196;-67
2021/08/30 02:31:49;;;;;;;13.60;12.15;;;14.20;99.90;;;;;;4990530;28;20699;-68
2021/08/30 02:34:20;;;;;;;12.57;11.38;;;14.30;99.90;;;;;;4990881;28;20215;-68
2021/08/30 02:36:48;;;;;;;13.63;12.32;;;14.20;99.90;;;;;;4990099;28;20192;-68
2021/08/30 02:39:18;;;;;;;12.60;11.40;;;14.20;99.90;;;;;;4989562;28;20752;-68
2021/08/30 02:41:45;;;;;;;13.25;12.05;;;14.20;99.90;;;;;;4996264;28;20204;-68
2021/08/30 02:44:13;;;;;;;14.73;13.32;;;14.20;99.90;;;;;;5009117;28;20239;-68
2021/08/30 02:46:41;;;;;;;15.25;13.73;;;14.20;99.90;;;;;;5009232;28;20211;-67
2021/08/30 02:49:09;;;;;;;13.27;11.15;;;14.20;99.90;;;;;;5009634;28;20207;-67
2021/08/30 02:51:38;;;;;;;12.48;11.25;;;14.20;99.90;;;;;;5009812;28;20291;-68
2021/08/30 02:54:07;;;;;;;14.32;12.93;;;14.20;99.90;;;;;;5009515;28;20213;-67
2021/08/30 02:56:36;;;;;;;10.55;9.50;;;14.20;99.90;;;;;;5001432;28;20338;-67
2021/08/30 02:59:03;;;;;;;10.75;9.70;;;14.20;99.90;;;;;;5000684;28;20209;-67
2021/08/30 03:01:31;;;;;;;11.82;8.85;;;14.20;99.90;;;;;;5008682;28;20225;-67
2021/08/30 03:03:58;;;;;;;10.52;9.43;;;14.20;99.90;;;;;;5009647;28;20230;-67
2021/08/30 03:06:27;;;;;;;10.25;8.32;;;14.20;99.90;;;;;;5008700;28;20318;-67
2021/08/30 03:08:54;;;;;;;8.88;8.13;;;14.20;99.90;;;;;;5007741;28;20727;-68
2021/08/30 03:11:23;;;;;;;8.57;7.78;;;14.20;99.90;;;;;;5008334;28;20285;-67
2021/08/30 03:13:54;;;;;;;8.98;8.00;;;14.20;99.90;;;;;;5009453;28;20207;-67
2021/08/30 03:16:25;;;;;;;8.77;7.97;;;14.10;99.90;;;;;;5007975;28;20223;-67
2021/08/30 03:18:53;;;;;;;8.75;7.95;;;14.10;99.90;;;;;;5007324;28;20269;-67
2021/08/30 03:21:20;;;;;;;10.65;9.52;;;14.10;99.90;;;;;;5009053;28;20306;-67
2021/08/30 03:23:48;;;;;;;9.45;8.63;;;14.10;99.90;;;;;;5009160;28;20231;-67
2021/08/30 03:26:15;;;;;;;8.48;7.68;;;14.00;99.90;;;;;;4992459;28;20210;-68
2021/08/30 03:28:42;;;;;;;8.30;7.50;;;14.10;99.90;;;;;;4988874;28;20322;-67
2021/08/30 03:31:11;;;;;;;7.20;6.60;;;14.00;99.90;;;;;;4989274;28;20785;-67
2021/08/30 03:33:38;;;;;;;7.07;6.45;;;14.10;99.90;;;;;;4989062;28;20210;-67
2021/08/30 03:36:06;;;;;;;6.82;6.18;;;14.00;99.90;;;;;;5008143;28;20219;-67
2021/08/30 03:38:33;;;;;;;7.10;6.40;;;14.10;99.90;;;;;;5004410;28;20203;-67
2021/08/30 03:41:01;;;;;;;7.68;7.05;;;14.00;99.90;;;;;;4989023;28;20204;-67
2021/08/30 03:43:29;;;;;;;7.32;6.63;;;14.10;99.90;;;;;;4988963;28;20227;-67
2021/08/30 03:45:56;;;;;;;8.10;7.30;;;14.10;99.90;;;;;;4989012;28;20212;-67
2021/08/30 03:48:25;;;;;;;8.32;7.63;;;14.10;99.90;;;;;;4988810;28;20572;-67
2021/08/30 03:50:53;;;;;;;9.52;8.63;;;14.00;99.90;;;;;;4989444;28;20207;-67
2021/08/30 03:53:22;;;;;;;10.05;9.15;;;14.00;99.90;;;;;;5004712;28;20215;-67
2021/08/30 03:55:50;;;;;;;11.63;9.73;;;14.10;99.90;;;;;;4987814;28;20303;-67
2021/08/30 03:58:18;;;;;;;10.88;9.95;;;14.10;99.90;;;;;;4987920;28;20291;-67
2021/08/30 04:00:45;;;;;;;10.82;9.80;;;14.10;99.90;;;;;;4988726;28;20815;-67
2021/08/30 04:03:13;;;;;;;11.50;10.43;;;14.10;99.90;;;;;;4988556;28;20625;-67
2021/08/30 04:05:43;;;;;;;12.85;11.63;;;14.10;99.90;;;;;;4988043;28;20265;-67
2021/08/30 04:08:10;;;;;;;12.65;11.38;;;14.10;99.90;;;;;;4997078;28;20250;-67
2021/08/30 04:10:38;;;;;;;12.50;11.05;;;14.10;99.90;;;;;;4988780;28;20211;-68
2021/08/30 04:13:05;;;;;;;12.98;11.65;;;14.10;99.90;;;;;;4988600;28;20212;-67
2021/08/30 04:15:32;;;;;;;14.25;12.95;;;14.20;99.90;;;;;;4988382;28;20218;-67
2021/08/30 04:17:59;;;;;;;11.82;10.57;;;14.20;99.90;;;;;;4987479;28;20203;-67
2021/08/30 04:20:26;;;;;;;12.80;11.50;;;14.20;99.90;;;;;;4988421;28;20210;-67
2021/08/30 04:22:55;;;;;;;13.40;12.13;;;14.10;99.90;;;;;;4999165;28;20298;-67
2021/08/30 04:25:21;;;;;;;13.20;11.90;;;14.10;99.90;;;;;;5006533;28;20235;-67
2021/08/30 04:27:48;;;;;;;12.77;11.20;;;14.10;99.90;;;;;;5007323;28;20298;-67
2021/08/30 04:30:15;;;;;;;12.88;11.57;;;14.10;99.90;;;;;;5007499;28;20250;-67
2021/08/30 04:32:42;;;;;;;13.95;12.52;;;14.20;99.90;;;;;;4994471;28;20193;-67
2021/08/30 04:35:09;;;;;;;13.32;11.93;;;14.20;99.90;;;;;;5007670;28;20207;-67
2021/08/30 04:37:36;;;;;;;13.85;12.45;;;14.20;99.90;;;;;;5006489;28;20213;-67
2021/08/30 04:40:07;;;;;;;14.77;13.05;;;14.20;99.90;;;;;;5007701;28;20349;-67
2021/08/30 04:42:34;;;;;;;14.23;12.52;;;14.20;99.90;;;;;;5001861;28;20338;-67
2021/08/30 04:45:01;;;;;;;14.80;12.75;;;14.20;99.90;;;;;;4987062;28;20331;-68
2021/08/30 04:47:28;;;;;;;14.20;12.70;;;14.20;99.90;;;;;;4987281;28;20246;-67
2021/08/30 04:49:55;;;;;;;14.93;13.43;;;14.30;99.90;;;;;;4986817;28;20239;-67
2021/08/30 04:52:22;;;;;;;14.93;13.27;;;14.20;99.90;;;;;;4987875;28;20652;-67
2021/08/30 04:54:48;;;;;;;16.02;13.65;;;14.20;99.90;;;;;;4987461;28;20216;-67
2021/08/30 04:57:17;;;;;;;14.13;12.68;;;14.20;99.90;;;;;;4987050;28;20222;-67
2021/08/30 04:59:44;;;;;;;16.98;13.93;;;14.20;99.90;;;;;;4994653;28;20211;-67
2021/08/30 05:02:11;;;;;;;17.85;12.82;;;14.10;99.90;;;;;;4989548;28;20235;-67
2021/08/30 05:04:38;;;;;;;16.77;12.63;;;14.10;99.90;;;;;;4987287;28;20227;-67
2021/08/30 05:07:05;;;;;;;16.55;14.60;;;14.20;99.90;;;;;;4987156;28;20667;-67
2021/08/30 05:09:32;;;;;;;16.67;13.85;;;14.20;99.90;;;;;;4987026;28;20228;-67
2021/08/30 05:11:59;;;;;;;18.10;13.25;;;14.30;99.90;;;;;;4987031;28;20604;-67
2021/08/30 05:14:29;;;;;;;17.08;12.77;;;14.30;99.90;;;;;;4992016;28;20664;-67
2021/08/30 05:16:56;;;;;;;17.20;13.73;;;14.20;99.90;;;;;;4997416;28;20307;-67
2021/08/30 05:19:23;;;;;;;15.90;12.90;;;14.20;99.90;;;;;;4986976;28;20214;-67
2021/08/30 05:21:50;;;;;;;15.65;12.40;;;14.30;99.90;;;;;;4991212;28;20227;-67
2021/08/30 05:24:17;;;;;;;15.02;12.43;;;14.30;99.90;;;;;;5001933;28;20822;-67
2021/08/30 05:26:43;;;;;;;17.05;14.38;;;14.30;99.90;;;;;;5006351;28;20213;-67
2021/08/30 05:29:10;;;;;;;15.82;14.23;;;14.30;99.90;;;;;;5005250;28;20209;-67
2021/08/30 05:31:38;;;;;;;15.30;11.50;;;14.30;99.90;;;;;;4988073;28;20215;-67
2021/08/30 05:34:05;;;;;;;16.17;12.70;;;14.30;99.90;;;;;;4998102;28;20314;-67
2021/08/30 05:36:32;;;;;;;13.25;11.25;;;14.30;99.90;;;;;;5007203;28;20199;-67
2021/08/30 05:38:59;;;;;;;13.23;11.73;;;14.30;99.90;;;;;;5008986;28;20727;-67
2021/08/30 05:41:26;;;;;;;16.85;13.43;;;14.30;99.90;;;;;;5010202;28;20309;-67
2021/08/30 05:43:52;;;;;;;15.57;13.48;;;14.30;99.90;;;;;;5002671;28;20687;-68
2021/08/30 05:46:19;;;;;;;15.07;12.82;;;14.40;99.90;;;;;;4989236;28;20200;-67
2021/08/30 05:48:49;;;;;;;15.43;13.70;;;14.40;99.90;;;;;;4988744;28;20211;-67
2021/08/30 05:51:19;;;;;;;15.38;13.13;;;14.30;99.90;;;;;;5001320;28;20218;-67
2021/08/30 05:53:46;;;;;;;16.92;13.70;;;14.40;99.90;;;;;;4997734;28;20216;-67
2021/08/30 05:56:13;;;;;;;13.77;12.38;;;14.40;99.90;;;;;;4990428;28;20432;-67
2021/08/30 05:58:40;;;;;;;17.60;14.57;;;14.50;99.90;;;;;;4990780;28;20925;-67
2021/08/30 06:01:07;;;;;;;15.93;14.23;;;14.50;99.90;;;;;;4991257;28;20283;-67
2021/08/30 06:03:34;;;;;;;17.58;14.00;;;14.50;99.90;;;;;;4991061;28;21009;-67
2021/08/30 06:06:02;;;;;;;17.17;15.18;;;14.50;99.90;;;;;;5005321;28;20353;-67
2021/08/30 06:08:29;;;;;;;16.73;14.30;;;14.50;99.90;;;;;;4996573;28;20472;-66
2021/08/30 06:10:57;;;;;;;16.10;14.32;;;14.50;99.90;;;;;;4994569;28;20219;-67
2021/08/30 06:13:24;;;;;;;15.40;13.70;;;14.50;99.90;;;;;;5006291;28;20207;-67
2021/08/30 06:15:52;;;;;;;16.45;14.18;;;14.50;99.90;;;;;;5018313;28;20206;-67
2021/08/30 06:18:19;;;;;;;16.42;14.48;;;14.60;99.90;;;;;;5005097;28;20257;-67
2021/08/30 06:20:46;;;;;;;16.00;13.77;;;14.50;99.90;;;;;;5008903;28;20211;-67
2021/08/30 06:23:14;;;;;;;16.67;14.20;;;14.60;99.90;;;;;;5019227;28;20663;-67
2021/08/30 06:25:43;;;;;;;16.42;14.65;;;14.60;99.90;;;;;;5008135;28;20231;-67
2021/08/30 06:28:10;;;;;;;18.77;15.30;;;14.70;99.90;;;;;;5015367;28;20213;-67
2021/08/30 06:30:37;;;;;;;14.63;13.10;;;14.80;99.90;;;;;;5010912;28;20725;-67
2021/08/30 06:33:04;;;;;;;15.80;14.23;;;14.90;99.90;;;;;;5013098;28;20684;-67
2021/08/30 06:35:31;;;;;;;16.70;14.43;;;14.90;99.90;;;;;;5014284;28;20292;-67
2021/08/30 06:37:58;;;;;;;13.93;12.52;;;15.00;99.90;;;;;;5014162;28;20605;-67
2021/08/30 06:40:26;;;;;;;13.55;12.07;;;15.00;99.90;;;;;;5013683;28;20362;-67
2021/08/30 06:42:53;;;;;;;15.00;13.40;;;15.10;99.90;;;;;;5008238;28;20213;-67
2021/08/30 06:45:23;;;;;;;14.77;13.18;;;15.00;99.90;;;;;;5008053;28;20775;-67
2021/08/30 06:47:51;;;;;;;15.35;13.75;;;15.00;99.90;;;;;;5007061;28;20234;-67
2021/08/30 06:50:18;;;;;;;14.73;13.25;;;14.90;99.90;;;;;;5012225;28;20195;-67
2021/08/30 06:52:45;;;;;;;13.10;11.80;;;14.80;99.90;;;;;;5016225;28;20697;-67
2021/08/30 06:55:12;;;;;;;13.40;12.00;;;14.80;99.90;;;;;;5019756;28;20202;-68
2021/08/30 06:57:40;;;;;;;15.20;13.70;;;14.80;99.90;;;;;;5015901;28;20213;-66
2021/08/30 07:00:08;;;;;;;14.70;13.20;;;14.90;99.90;;;;;;5007460;28;20257;-67
2021/08/30 07:02:36;;;;;;;16.17;13.75;;;15.00;99.90;;;;;;5004024;28;20555;-67
2021/08/30 07:05:03;;;;;;;15.32;13.73;;;15.00;99.90;;;;;;5015610;28;20711;-68
2021/08/30 07:07:30;;;;;;;15.90;14.07;;;15.00;99.90;;;;;;5008400;28;20582;-67
2021/08/30 07:09:57;;;;;;;15.27;13.65;;;15.10;99.90;;;;;;5013092;28;20211;-68
2021/08/30 07:12:24;;;;;;;15.75;14.18;;;15.20;99.90;;;;;;5015273;28;20619;-67
2021/08/30 07:14:52;;;;;;;15.60;14.07;;;15.10;99.90;;;;;;5009378;28;20761;-67
2021/08/30 07:17:19;;;;;;;15.65;14.05;;;15.20;99.90;;;;;;5006401;28;20207;-67
2021/08/30 07:19:46;;;;;;;15.80;14.10;;;15.20;99.90;;;;;;5016398;28;20298;-67
2021/08/30 07:22:13;;;;;;;14.75;13.27;;;15.20;99.90;;;;;;4997445;28;20207;-67
2021/08/30 07:24:40;;;;;;;14.90;13.43;;;15.30;99.90;;;;;;5002333;28;20289;-68
2021/08/30 07:27:11;;;;;;;13.93;12.63;;;15.40;99.90;;;;;;5009648;28;20207;-67
2021/08/30 07:29:37;;;;;;;14.77;13.38;;;15.40;99.90;;;;;;5010992;28;20203;-67
2021/08/30 07:32:07;;;;;;;14.77;13.27;;;15.40;99.90;;;;;;5001148;28;20207;-68
2021/08/30 07:34:33;;;;;;;14.85;13.35;;;15.50;99.90;;;;;;5005666;28;20215;-67
2021/08/30 07:37:00;;;;;;;14.57;12.73;;;15.50;99.90;;;;;;5008108;28;20298;-67
2021/08/30 07:39:28;;;;;;;14.27;12.85;;;15.60;99.90;;;;;;5011250;28;20198;-68
2021/08/30 07:41:55;;;;;;;14.65;12.15;;;15.70;99.90;;;;;;5009630;28;20215;-67
2021/08/30 07:44:24;;;;;;;13.90;12.45;;;15.70;99.90;;;;;;5007680;28;20287;-68
2021/08/30 07:46:51;;;;;;;15.05;13.02;;;15.80;99.90;;;;;;5014599;28;20261;-68
2021/08/30 07:49:19;;;;;;;13.32;12.07;;;15.80;99.90;;;;;;5012551;28;20669;-67
2021/08/30 07:51:46;;;;;;;13.48;12.25;;;15.80;99.90;;;;;;5011697;28;20206;-68
2021/08/30 07:54:13;;;;;;;14.68;13.18;;;15.70;99.90;;;;;;4993847;28;20218;-67
2021/08/30 07:56:41;;;;;;;14.77;13.38;;;15.70;99.90;;;;;;5009075;28;20208;-67
2021/08/30 07:59:09;;;;;;;14.38;12.75;;;15.80;99.90;;;;;;5005528;28;20214;-67
2021/08/30 08:01:36;;;;;;;13.15;11.60;;;15.80;99.90;;;;;;5006006;28;20302;-67
2021/08/30 08:04:03;;;;;;;12.75;11.55;;;15.80;99.90;;;;;;5009295;28;20289;-67
2021/08/30 08:06:31;;;;;;;12.10;10.95;;;15.70;99.90;;;;;;5001214;28;20237;-68
2021/08/30 08:08:59;;;;;;;12.15;10.95;;;15.60;99.90;;;;;;5004048;28;20211;-68
2021/08/30 08:11:26;;;;;;;12.50;11.30;;;15.60;99.90;;;;;;5007239;28;20257;-67
2021/08/30 08:13:53;;;;;;;13.90;12.50;;;15.50;99.90;;;;;;5011244;28;20203;-67
2021/08/30 08:16:19;;;;;;;11.48;10.38;;;15.50;99.90;;;;;;5004798;28;20199;-67
2021/08/30 08:18:46;;;;;;;13.60;12.10;;;15.50;99.90;;;;;;5008768;28;20210;-67
2021/08/30 08:21:13;;;;;;;17.65;12.68;;;15.60;99.90;;;;;;5005313;28;20198;-67
2021/08/30 08:23:41;;;;;;;11.70;10.60;;;15.70;99.90;;;;;;5000489;28;20869;-67
2021/08/30 08:26:08;;;;;;;12.65;11.45;;;15.70;99.90;;;;;;5002138;28;20230;-67
2021/08/30 08:28:35;;;;;;;12.75;11.45;;;15.60;99.90;;;;;;5003899;28;20291;-67
2021/08/30 08:31:05;;;;;;;12.13;10.93;;;15.60;99.90;;;;;;4989678;28;20295;-67
2021/08/30 08:33:31;;;;;;;12.90;11.38;;;15.60;99.90;;;;;;5010947;28;20328;-68
2021/08/30 08:35:58;;;;;;;12.55;11.25;;;15.50;99.90;;;;;;5008815;28;20311;-67
2021/08/30 08:38:25;;;;;;;13.02;11.82;;;15.50;99.90;;;;;;5017062;28;20199;-67
2021/08/30 08:40:53;;;;;;;15.02;13.60;;;15.50;99.90;;;;;;5005473;28;20297;-67
2021/08/30 08:43:21;;;;;;;15.63;13.82;;;15.50;99.90;;;;;;5013759;28;20207;-67
2021/08/30 08:45:50;;;;;;;11.63;10.43;;;15.60;99.90;;;;;;4998943;28;20231;-67
2021/08/30 08:48:20;;;;;;;10.20;9.30;;;15.70;99.90;;;;;;5007078;28;20203;-67
2021/08/30 08:50:47;;;;;;;11.32;10.25;;;15.80;99.90;;;;;;5003541;28;20625;-67
2021/08/30 08:53:16;;;;;;;11.90;10.70;;;16.00;99.90;;;;;;5006307;28;20213;-67
2021/08/30 08:55:43;;;;;;;10.48;9.55;;;16.20;99.90;;;;;;5011047;28;20203;-68
2021/08/30 08:58:12;;;;;;;8.93;8.13;;;16.20;99.90;;;;;;5010189;28;20198;-67
2021/08/30 09:00:42;;;;;;;11.27;10.18;;;16.00;99.90;;;;;;5007109;28;20290;-66
2021/08/30 09:03:15;;;;;;;11.65;10.50;;;16.00;99.90;;;;;;5006295;28;20198;-66
2021/08/30 09:05:43;;;;;;;9.80;8.88;;;15.80;99.90;;;;;;5005453;28;20234;-67
2021/08/30 09:08:28;;;;;;;10.05;9.15;;;15.90;99.90;;;;;;5000314;28;20199;-66
2021/08/30 09:10:55;;;;;;;10.10;9.10;;;16.10;99.90;;;;;;5011615;28;20572;-66
2021/08/30 09:13:28;;;;;;;9.20;8.35;;;16.40;99.90;;;;;;5007241;28;20897;-67
2021/08/30 09:15:55;;;;;;;8.80;7.90;;;16.70;99.90;;;;;;5005612;28;20219;-66
2021/08/30 09:18:27;;;;;;;10.35;9.35;;;16.90;99.90;;;;;;5013078;28;20210;-66
2021/08/30 09:20:54;;;;;;;10.40;9.50;;;16.90;99.90;;;;;;5006008;28;20202;-66
2021/08/30 09:23:21;;;;;;;10.25;9.35;;;17.00;99.90;;;;;;5010961;28;20458;-66
2021/08/30 09:25:48;;;;;;;10.35;9.40;;;17.10;99.90;;;;;;5009015;28;20235;-67
2021/08/30 09:28:15;;;;;;;10.75;9.68;;;17.00;99.90;;;;;;5007559;28;20207;-66
2021/08/30 09:30:54;;;;;;;11.05;9.90;;;16.90;99.90;;;;;;5009463;28;20199;-66
2021/08/30 09:33:21;;;;;;;11.23;10.25;;;16.90;99.90;;;;;;5000413;28;20206;-66
2021/08/30 09:35:56;;;;;;;9.80;8.90;;;17.00;99.90;;;;;;5002386;28;20235;-66
2021/08/30 09:38:24;;;;;;;10.53;9.53;;;17.30;99.90;;;;;;5016764;28;20469;-66
2021/08/30 09:40:51;;;;;;;10.77;9.77;;;17.40;99.90;;;;;;5006009;28;20464;-65
2021/08/30 09:43:22;;;;;;;11.00;9.90;;;17.60;99.90;;;;;;5008329;28;20464;-67
2021/08/30 09:45:50;;;;;;;10.07;9.17;;;17.80;99.90;;;;;;5002788;28;20490;-67
2021/08/30 09:48:26;;;;;;;10.70;9.70;;;17.80;99.90;;;;;;5002747;28;20526;-67
2021/08/30 09:50:58;;;;;;;11.60;10.40;;;17.90;99.90;;;;;;5010023;28;20465;-67
2021/08/30 09:53:26;;;;;;;10.80;9.80;;;17.80;99.90;;;;;;5001855;28;20462;-67
2021/08/30 09:55:53;;;;;;;10.90;9.90;;;17.70;99.90;;;;;;5006805;28;20476;-67
2021/08/30 09:58:21;;;;;;;11.53;10.50;;;17.40;99.90;;;;;;5010007;28;20461;-67
2021/08/30 10:00:51;;;;;;;11.73;10.33;;;17.10;99.90;;;;;;5009754;28;20462;-66
2021/08/30 10:03:18;;;;;;;12.60;11.20;;;16.90;99.90;;;;;;5005866;28;20462;-66
2021/08/30 10:05:46;;;;;;;10.50;9.55;;;16.60;99.90;;;;;;5003829;28;20994;-66
2021/08/30 10:08:16;;;;;;;11.75;10.65;;;16.40;99.90;;;;;;4989739;28;20257;-66
2021/08/30 10:10:43;;;;;;;12.13;10.90;;;16.30;99.90;;;;;;4994190;28;20649;-66
2021/08/30 10:13:10;;;;;;;14.00;12.65;;;16.30;99.90;;;;;;5001477;28;20238;-66
2021/08/30 10:15:38;;;;;;;13.70;12.40;;;16.50;99.90;;;;;;4993829;28;20210;-67
2021/08/30 10:18:06;;;;;;;13.65;12.35;;;16.70;99.90;;;;;;5001513;28;20213;-67
2021/08/30 10:20:35;;;;;;;13.37;12.07;;;16.80;99.90;;;;;;5017555;28;20194;-66
2021/08/30 10:23:04;;;;;;;15.17;13.50;;;17.10;99.90;;;;;;5008501;28;20593;-66
2021/08/30 10:25:32;;;;;;;15.23;13.67;;;17.40;99.90;;;;;;5003406;28;20458;-66
2021/08/30 10:28:01;;;;;;;14.87;13.37;;;17.60;99.90;;;;;;5001635;28;20449;-66
2021/08/30 10:30:29;;;;;;;15.00;13.40;;;17.70;99.90;;;;;;4995749;28;20465;-66
2021/08/30 10:32:57;;;;;;;13.60;12.07;;;17.80;99.90;;;;;;5005114;28;20549;-67
2021/08/30 10:35:29;;;;;;;12.67;11.33;;;17.80;99.90;;;;;;5007204;28;20557;-66
2021/08/30 10:37:59;;;;;;;11.33;10.33;;;17.80;99.90;;;;;;4996822;28;20521;-67
2021/08/30 10:40:29;;;;;;;12.20;10.53;;;17.70;99.90;;;;;;5007989;28;20501;-67
2021/08/30 10:43:02;;;;;;;10.20;9.30;;;17.70;99.90;;;;;;5001634;28;20552;-67
2021/08/30 10:45:36;;;;;;;12.53;9.30;;;17.70;99.90;;;;;;5007159;28;20880;-67
2021/08/30 10:48:14;;;;;;;10.60;9.70;;;18.20;99.90;;;;;;5001204;28;20463;-67
2021/08/30 10:50:45;;;;;;;11.07;9.97;;;18.50;99.90;;;;;;4997938;28;20459;-67
2021/08/30 10:53:17;;;;;;;10.70;9.60;;;18.40;99.90;;;;;;5005276;28;20813;-66
2021/08/30 10:55:46;;;;;;;9.93;9.10;;;18.10;99.90;;;;;;5013033;28;20482;-67
2021/08/30 10:58:22;;;;;;;9.10;8.30;;;17.70;99.90;;;;;;4994865;28;20869;-67
2021/08/30 11:00:51;;;;;;;10.10;9.20;;;17.50;99.90;;;;;;4995884;28;20564;-66
2021/08/30 11:03:30;;;;;;;10.00;9.10;;;17.50;99.90;;;;;;5008246;28;20551;-66
2021/08/30 11:06:09;;;;;;;9.33;8.50;;;17.70;99.90;;;;;;4998868;28;20504;-66
2021/08/30 11:08:39;;;;;;;9.60;8.70;;;18.00;99.90;;;;;;5007237;28;20970;-66
2021/08/30 11:11:14;;;;;;;10.27;9.37;;;18.10;99.90;;;;;;5000068;28;20574;-67
2021/08/30 11:13:42;;;;;;;10.50;9.50;;;18.20;99.90;;;;;;4997001;28;20568;-66
2021/08/30 11:16:19;;;;;;;10.67;9.57;;;18.40;99.90;;;;;;4999081;28;21411;-67
2021/08/30 11:18:54;;;;;;;10.30;9.40;;;18.20;99.90;;;;;;4998838;28;20561;-67
2021/08/30 11:21:46;;;;;;;10.40;9.43;;;18.10;99.90;;;;;;5002630;28;20465;-66
2021/08/30 11:24:23;;;;;;;9.83;9.03;;;18.00;99.90;;;;;;4997855;28;20481;-66
2021/08/30 11:26:50;;;;;;;10.33;9.37;;;17.90;99.90;;;;;;5000971;28;20500;-67
2021/08/30 11:29:17;;;;;;;9.60;8.60;;;18.20;99.90;;;;;;5004212;28;20482;-67
2021/08/30 11:31:44;;;;;;;8.40;7.67;;;18.40;99.90;;;;;;4998706;28;20467;-67
2021/08/30 11:34:23;;;;;;;8.63;7.83;;;18.80;99.90;;;;;;5006445;28;20461;-67
2021/08/30 11:36:53;;;;;;;9.57;8.73;;;19.60;99.90;;;;;;5003231;28;20458;-66
2021/08/30 11:39:20;;;;;;;9.40;8.50;;;19.90;99.90;;;;;;5005640;28;20539;-67
2021/08/30 11:41:53;;;;;;;10.10;9.27;;;19.80;99.90;;;;;;5000664;28;21053;-67
2021/08/30 11:44:22;;;;;;;9.67;8.80;;;19.60;99.90;;;;;;5006705;28;20568;-67
2021/08/30 11:46:51;;;;;;;9.80;8.83;;;19.20;99.90;;;;;;4992264;28;20510;-67
2021/08/30 11:49:18;;;;;;;10.23;9.13;;;19.00;99.90;;;;;;4994539;28;20454;-67
2021/08/30 11:51:47;;;;;;;10.10;9.13;;;18.50;99.90;;;;;;5003702;28;20553;-66
2021/08/30 11:54:18;;;;;;;10.90;9.90;;;18.10;99.90;;;;;;4999886;28;20502;-67
2021/08/30 11:56:55;;;;;;;11.03;10.03;;;18.00;99.90;;;;;;4998839;28;20486;-67
2021/08/30 11:59:41;;;;;;;10.70;9.70;;;18.00;99.90;;;;;;4995936;28;20889;-67
2021/08/30 12:02:13;;;;;;;9.30;8.40;;;18.00;99.90;;;;;;4998775;28;20470;-67
2021/08/30 12:04:40;;;;;;;10.13;9.03;;;18.00;99.90;;;;;;5002391;28;20532;-67
2021/08/30 12:07:10;;;;;;;10.53;9.53;;;17.80;99.90;;;;;;5003872;28;20564;-66
2021/08/30 12:09:41;;;;;;;9.90;9.00;;;18.00;99.90;;;;;;4995585;28;20476;-68
2021/08/30 12:12:21;;;;;;;10.50;9.60;;;18.30;99.90;;;;;;5002477;28;20515;-68
2021/08/30 12:15:00;;;;;;;10.87;9.50;;;18.50;99.90;;;;;;5002513;28;20472;-66
2021/08/30 12:17:31;;;;;;;10.33;9.27;;;18.40;99.90;;;;;;4999707;28;20462;-67
2021/08/30 12:20:00;;;;;;;11.00;9.93;;;18.40;99.90;;;;;;4995380;28;20953;-68
2021/08/30 12:22:30;;;;;;;12.77;10.57;;;18.20;99.90;;;;;;4993519;28;20465;-67
2021/08/30 12:25:07;;;;;;;11.47;9.93;;;18.00;99.90;;;;;;5000769;28;20861;-67
2021/08/30 12:27:35;;;;;;;11.37;10.27;;;18.10;99.90;;;;;;4995120;28;20493;-67
2021/08/30 12:30:14;;;;;;;11.80;10.80;;;18.20;99.90;;;;;;5004084;28;20509;-68
2021/08/30 12:33:09;;;;;;;11.90;10.83;;;18.30;99.90;;;;;;5006840;28;20466;-67
2021/08/30 12:35:37;;;;;;;11.33;10.30;;;18.20;99.90;;;;;;4994632;28;20549;-67
2021/08/30 12:38:07;;;;;;;11.10;10.10;;;18.30;99.90;;;;;;4995483;28;20964;-67
2021/08/30 12:40:36;;;;;;;11.67;10.57;;;18.40;99.90;;;;;;5000912;28;20454;-67
2021/08/30 12:43:04;;;;;;;10.90;9.80;;;18.30;99.90;;;;;;5001368;28;20465;-67
2021/08/30 12:45:31;;;;;;;10.17;9.17;;;18.40;99.90;;;;;;5005289;28;20465;-67
2021/08/30 12:47:58;;;;;;;10.10;9.10;;;18.40;99.90;;;;;;5005156;28;20591;-66